Time;durP1;ratioP1;P1;durP2;ratioP2;P2;SDS_P1;SDS_P2;PMS_P1;PMS_P2;Temp;Humidity;BMP_temperature;BMP_pressure;BME280_temperature;BME280_humidity;BME280_pressure;Samples;Min_cycle;Max_cycle;Signal;HPM_P1;HPM_P2
2022/04/20 00:02:18;;;;;;;4.97;1.70;;;;;;;14.22;35.47;100371.44;5088571;28;20206;-67
2022/04/20 00:04:47;;;;;;;4.07;1.97;;;;;;;14.30;35.04;100371.41;5086214;28;20320;-66
2022/04/20 00:07:15;;;;;;;3.67;1.70;;;;;;;14.20;34.92;100370.78;5085141;28;20245;-66
2022/04/20 00:09:43;;;;;;;5.20;2.00;;;;;;;14.20;35.06;100374.28;5081235;28;20217;-67
2022/04/20 00:12:11;;;;;;;4.23;1.90;;;;;;;14.19;35.55;100377.09;5081382;28;20213;-67
2022/04/20 00:14:39;;;;;;;6.20;2.07;;;;;;;14.18;35.22;100370.13;5079287;28;20677;-67
2022/04/20 00:17:07;;;;;;;6.40;1.87;;;;;;;14.15;35.14;100370.47;5084423;28;20205;-67
2022/04/20 00:19:35;;;;;;;4.77;2.00;;;;;;;14.03;35.04;100371.84;5079349;28;20256;-68
2022/04/20 00:22:05;;;;;;;3.90;1.90;;;;;;;13.94;34.66;100369.22;5082788;28;20208;-67
2022/04/20 00:24:32;;;;;;;13.13;1.90;;;;;;;13.83;35.08;100369.59;5077382;28;20211;-68
2022/04/20 00:27:00;;;;;;;4.93;1.80;;;;;;;13.68;35.77;100371.28;5080468;28;20254;-67
2022/04/20 00:29:28;;;;;;;4.70;1.90;;;;;;;13.68;35.77;100357.97;5079550;28;20223;-67
2022/04/20 00:31:55;;;;;;;5.17;2.00;;;;;;;13.62;35.58;100366.66;5082630;28;20207;-68
2022/04/20 00:34:23;;;;;;;3.87;1.77;;;;;;;13.64;35.93;100364.63;5080768;28;20676;-66
2022/04/20 00:36:53;;;;;;;5.73;2.00;;;;;;;13.67;35.57;100366.97;5083071;28;20199;-68
2022/04/20 00:39:22;;;;;;;3.93;1.90;;;;;;;13.73;35.58;100374.28;5081109;28;20845;-68
2022/04/20 00:41:50;;;;;;;6.50;1.70;;;;;;;13.75;35.59;100369.59;5082798;28;20234;-68
2022/04/20 00:44:19;;;;;;;3.87;1.83;;;;;;;13.63;35.41;100381.66;5079514;28;20215;-67
2022/04/20 00:46:48;;;;;;;3.57;2.03;;;;;;;13.54;35.74;100375.47;5084421;28;20233;-68
2022/04/20 00:49:17;;;;;;;3.20;1.43;;;;;;;13.44;35.98;100376.69;5082528;28;20596;-68
2022/04/20 00:51:52;;;;;;;4.50;2.30;;;;;;;13.49;36.14;100371.66;5082113;28;20213;-67
2022/04/20 00:54:21;;;;;;;3.70;1.67;;;;;;;13.51;36.18;100372.34;5077604;28;20347;-68
2022/04/20 00:56:49;;;;;;;5.60;2.00;;;;;;;13.52;36.10;100377.50;5085868;28;20206;-68
2022/04/20 00:59:20;;;;;;;6.00;2.23;;;;;;;13.51;36.34;100372.34;5079650;28;20217;-68
2022/04/20 01:01:47;;;;;;;3.20;1.70;;;;;;;13.47;36.27;100373.66;5081167;28;20235;-66
2022/04/20 01:04:15;;;;;;;3.50;1.70;;;;;;;13.43;36.25;100372.34;5080049;28;20211;-67
2022/04/20 01:06:43;;;;;;;4.27;1.97;;;;;;;13.46;36.31;100374.66;5080356;28;20333;-68
2022/04/20 01:09:11;;;;;;;4.77;1.70;;;;;;;13.43;36.29;100372.34;5080178;28;20309;-68
2022/04/20 01:11:41;;;;;;;4.73;1.70;;;;;;;13.44;36.68;100377.53;5082175;28;20238;-66
2022/04/20 01:14:09;;;;;;;4.17;1.90;;;;;;;13.49;36.78;100379.66;5080058;28;20210;-68
2022/04/20 01:16:37;;;;;;;7.03;2.00;;;;;;;13.52;37.23;100380.16;5083642;28;20219;-66
2022/04/20 01:19:05;;;;;;;3.57;1.70;;;;;;;13.57;36.92;100375.16;5086638;28;20298;-67
2022/04/20 01:21:34;;;;;;;4.57;2.13;;;;;;;13.59;36.90;100379.47;5084236;28;20238;-67
2022/04/20 01:24:01;;;;;;;6.03;1.93;;;;;;;13.54;36.81;100378.13;5086285;28;20301;-68
2022/04/20 01:26:29;;;;;;;3.63;2.00;;;;;;;13.44;36.41;100377.53;5084735;28;20275;-68
2022/04/20 01:28:59;;;;;;;6.17;2.10;;;;;;;13.35;36.85;100373.19;5084570;28;20974;-66
2022/04/20 01:31:26;;;;;;;9.77;2.00;;;;;;;13.07;37.08;100386.00;5082513;28;20211;-67
2022/04/20 01:33:54;;;;;;;4.13;1.60;;;;;;;12.99;37.33;100367.34;5084290;28;20214;-67
2022/04/20 01:36:22;;;;;;;3.00;1.70;;;;;;;12.90;37.89;100370.19;5090554;28;20208;-68
2022/04/20 01:38:51;;;;;;;4.93;1.97;;;;;;;12.93;38.41;100373.31;5085348;28;20210;-66
2022/04/20 01:41:19;;;;;;;3.97;2.10;;;;;;;13.00;38.68;100369.03;5085481;28;20206;-66
2022/04/20 01:43:47;;;;;;;4.47;1.87;;;;;;;13.07;38.75;100371.84;5082895;28;20264;-67
2022/04/20 01:46:15;;;;;;;4.17;1.90;;;;;;;13.07;38.61;100375.34;5085738;28;20209;-67
2022/04/20 01:48:43;;;;;;;4.97;2.07;;;;;;;13.08;38.88;100371.69;5086445;28;20226;-67
2022/04/20 01:53:57;;;;;;;5.10;2.20;;;;;;;12.98;39.01;100379.00;5083497;28;20229;-67
2022/04/20 01:56:25;;;;;;;7.23;2.27;;;;;;;12.94;39.17;100375.00;5083745;28;20223;-67
2022/04/20 01:58:53;;;;;;;6.13;2.30;;;;;;;12.89;39.31;100377.31;5083699;28;20198;-67
2022/04/20 02:04:06;;;;;;;5.77;2.30;;;;;;;12.82;39.53;100376.31;5053439;28;20199;-67
2022/04/20 02:06:33;;;;;;;4.90;2.10;;;;;;;12.76;40.19;100372.47;5083503;28;20243;-67
2022/04/20 02:09:03;;;;;;;7.07;2.40;;;;;;;12.76;39.77;100374.31;5081906;28;20258;-66
2022/04/20 02:11:31;;;;;;;5.30;2.17;;;;;;;12.70;40.11;100372.31;5083671;28;20210;-66
2022/04/20 02:13:59;;;;;;;3.67;2.00;;;;;;;12.64;40.26;100378.28;5081183;28;20211;-67
2022/04/20 02:16:27;;;;;;;7.23;2.30;;;;;;;12.63;40.38;100365.97;5082822;28;20229;-66
2022/04/20 02:18:54;;;;;;;5.07;2.40;;;;;;;12.59;40.61;100375.28;5090134;28;20196;-66
2022/04/20 02:21:22;;;;;;;5.73;2.17;;;;;;;12.58;40.62;100368.28;5079694;28;20328;-67
2022/04/20 02:23:50;;;;;;;6.90;2.33;;;;;;;12.59;40.40;100372.63;5081936;28;20215;-66
2022/04/20 02:26:19;;;;;;;3.53;2.20;;;;;;;12.53;40.65;100370.63;5086006;28;20205;-67
2022/04/20 02:28:47;;;;;;;3.93;1.90;;;;;;;12.55;40.87;100363.31;5083326;28;20514;-68
2022/04/20 02:31:16;;;;;;;4.53;2.37;;;;;;;12.54;40.66;100377.59;5087933;28;20309;-66
2022/04/20 02:33:44;;;;;;;4.30;2.23;;;;;;;12.53;40.73;100375.94;5081097;28;20214;-68
2022/04/20 02:36:12;;;;;;;5.07;2.50;;;;;;;12.50;40.86;100376.25;5083638;28;20229;-67
2022/04/20 02:38:41;;;;;;;6.57;2.80;;;;;;;12.45;40.94;100374.09;5082287;28;20225;-67
2022/04/20 02:41:09;;;;;;;7.60;2.57;;;;;;;12.48;41.09;100370.28;5083803;28;20289;-67
2022/04/20 02:43:38;;;;;;;5.33;2.40;;;;;;;12.40;41.26;100373.75;5078984;28;20213;-68
2022/04/20 02:46:07;;;;;;;5.40;2.30;;;;;;;12.36;41.18;100377.72;5082683;28;20734;-67
2022/04/20 02:48:35;;;;;;;4.00;2.40;;;;;;;12.31;41.34;100383.50;5080978;28;20222;-67
2022/04/20 02:51:05;;;;;;;6.20;2.43;;;;;;;12.26;41.61;100377.84;5083129;28;20213;-66
2022/04/20 02:53:33;;;;;;;5.90;2.57;;;;;;;12.25;41.61;100378.84;5082065;28;20407;-67
2022/04/20 02:56:01;;;;;;;7.43;3.20;;;;;;;12.21;41.80;100382.84;5082489;28;20264;-68
2022/04/20 02:58:29;;;;;;;5.33;2.50;;;;;;;12.17;42.01;100381.47;5083799;28;20207;-67
2022/04/20 03:00:58;;;;;;;4.37;2.00;;;;;;;12.17;42.17;100376.16;5081729;28;20209;-67
2022/04/20 03:03:26;;;;;;;5.13;2.60;;;;;;;12.14;42.28;100365.03;5083599;28;20206;-67
2022/04/20 03:05:54;;;;;;;7.30;2.13;;;;;;;12.13;42.48;100369.50;5083964;28;20575;-66
2022/04/20 03:08:23;;;;;;;6.50;2.90;;;;;;;12.11;42.32;100376.81;5085363;28;20689;-67
2022/04/20 03:10:52;;;;;;;5.63;2.20;;;;;;;12.07;42.16;100386.09;5078904;28;20926;-66
2022/04/20 03:13:20;;;;;;;5.90;2.70;;;;;;;11.85;42.60;100386.66;5083479;28;20289;-66
2022/04/20 03:15:48;;;;;;;5.47;2.83;;;;;;;11.56;43.31;100385.13;5084309;28;20741;-67
2022/04/20 03:18:17;;;;;;;9.90;2.60;;;;;;;11.54;43.83;100395.06;5081275;28;20531;-68
2022/04/20 03:20:46;;;;;;;5.43;2.50;;;;;;;11.61;43.99;100388.13;5080247;28;20207;-67
2022/04/20 03:23:14;;;;;;;7.20;2.70;;;;;;;11.64;44.11;100398.44;5080609;28;20216;-67
2022/04/20 03:25:42;;;;;;;6.23;2.80;;;;;;;11.62;43.97;100397.78;5082975;28;20687;-68
2022/04/20 03:28:10;;;;;;;7.23;2.93;;;;;;;11.61;43.85;100404.06;5081371;28;20231;-67
2022/04/20 03:30:38;;;;;;;5.97;2.67;;;;;;;11.62;44.00;100403.09;5078443;28;20205;-69
2022/04/20 03:33:11;;;;;;;6.73;2.60;;;;;;;11.52;44.41;100407.66;5080434;28;20390;-68
2022/04/20 03:35:41;;;;;;;6.60;2.40;;;;;;;11.47;44.42;100406.47;5081489;28;20599;-67
2022/04/20 03:38:09;;;;;;;5.40;2.33;;;;;;;11.31;44.84;100404.53;5081241;28;20206;-69
2022/04/20 03:40:37;;;;;;;5.73;2.57;;;;;;;11.24;44.77;100404.31;5080069;28;20233;-67
2022/04/20 03:43:05;;;;;;;5.03;2.57;;;;;;;11.21;44.78;100406.44;5084048;28;20237;-67
2022/04/20 03:45:33;;;;;;;8.53;2.60;;;;;;;11.14;44.81;100411.53;5081996;28;20300;-67
2022/04/20 03:48:04;;;;;;;7.67;2.97;;;;;;;11.01;45.19;100402.28;5081225;28;20262;-68
2022/04/20 03:50:34;;;;;;;5.30;2.33;;;;;;;10.89;45.55;100407.00;5081799;28;20239;-67
2022/04/20 03:53:04;;;;;;;9.47;2.43;;;;;;;10.88;45.42;100413.28;5086015;28;20243;-67
2022/04/20 03:55:32;;;;;;;3.53;2.17;;;;;;;10.77;45.67;100417.00;5086979;28;20675;-67
2022/04/20 03:57:59;;;;;;;9.80;2.60;;;;;;;10.73;45.87;100410.31;5088989;28;20209;-67
2022/04/20 04:00:37;;;;;;;;;;;;;;;;;;;;;
2022/04/20 04:03:07;;;;;;;5.47;2.43;;;;;;;10.62;45.70;100399.94;5086028;28;20256;-67
2022/04/20 04:05:40;;;;;;;6.00;2.70;;;;;;;10.63;45.59;100412.22;5087165;28;20653;-67
2022/04/20 04:08:13;;;;;;;4.33;2.57;;;;;;;10.76;45.27;100412.66;5086994;28;20241;-67
2022/04/20 04:10:40;;;;;;;7.23;2.57;;;;;;;10.79;45.31;100407.06;5080444;28;20691;-67
2022/04/20 04:13:11;;;;;;;9.37;2.77;;;;;;;10.68;45.58;100404.63;5082651;28;20210;-70
2022/04/20 04:15:43;;;;;;;8.77;2.60;;;;;;;10.60;45.82;100407.19;5084919;28;20246;-72
2022/04/20 04:18:12;;;;;;;5.97;2.30;;;;;;;10.48;46.25;100411.03;5085899;28;20216;-70
2022/04/20 04:20:43;;;;;;;7.77;2.33;;;;;;;10.46;46.47;100413.84;5085917;28;20305;-70
2022/04/20 04:23:12;;;;;;;11.60;2.80;;;;;;;10.39;46.55;100409.28;5082489;28;20213;-69
2022/04/20 04:25:39;;;;;;;6.70;2.37;;;;;;;10.38;46.49;100405.78;5088673;28;20409;-69
2022/04/20 04:28:07;;;;;;;6.37;2.70;;;;;;;10.40;46.85;100408.28;5088167;28;20210;-69
2022/04/20 04:30:35;;;;;;;14.03;2.87;;;;;;;10.34;46.89;100409.72;5085832;28;20230;-69
2022/04/20 04:33:03;;;;;;;7.30;2.60;;;;;;;10.33;46.89;100423.97;5084589;28;20198;-69
2022/04/20 04:35:30;;;;;;;7.00;2.70;;;;;;;10.43;46.96;100415.97;5088563;28;20535;-70
2022/04/20 04:37:58;;;;;;;4.97;2.77;;;;;;;10.49;46.55;100405.59;5086374;28;20225;-70
2022/04/20 04:40:27;;;;;;;12.00;3.17;;;;;;;10.63;46.41;100404.25;5085232;28;20206;-69
2022/04/20 04:42:55;;;;;;;6.50;2.80;;;;;;;10.75;46.17;100410.16;5086393;28;20554;-70
2022/04/20 04:50:54;;;;;;;6.07;2.83;;;;;;;10.80;46.41;100411.41;5088781;28;20235;-69
2022/04/20 04:53:21;;;;;;;6.93;2.60;;;;;;;10.83;46.56;100405.75;5093067;28;20297;-70
2022/04/20 04:55:50;;;;;;;5.00;2.40;;;;;;;10.79;46.67;100409.72;5092080;28;20227;-70
2022/04/20 04:58:18;;;;;;;8.63;2.83;;;;;;;10.79;46.67;100415.03;5089488;28;20290;-70
2022/04/20 05:00:46;;;;;;;4.00;2.40;;;;;;;10.85;46.34;100408.28;5084528;28;20242;-69
2022/04/20 05:03:14;;;;;;;6.77;3.00;;;;;;;10.81;46.08;100413.06;5087478;28;20298;-69
2022/04/20 05:05:42;;;;;;;4.50;2.40;;;;;;;10.85;46.11;100409.09;5086303;28;20265;-69
2022/04/20 05:08:10;;;;;;;5.27;2.70;;;;;;;10.88;46.04;100413.28;5085351;28;20211;-69
2022/04/20 05:10:37;;;;;;;8.00;2.70;;;;;;;10.89;45.87;100410.50;5088900;28;20227;-70
2022/04/20 05:13:07;;;;;;;8.23;2.93;;;;;;;10.94;45.94;100408.19;5089409;28;20573;-70
2022/04/20 05:15:36;;;;;;;7.90;3.13;;;;;;;10.99;45.92;100414.88;5090575;28;20305;-70
2022/04/20 05:18:04;;;;;;;4.00;2.60;;;;;;;10.98;46.18;100414.06;5089250;28;20663;-70
2022/04/20 05:20:32;;;;;;;5.90;2.90;;;;;;;11.06;46.14;100410.63;5087760;28;20274;-70
2022/04/20 05:23:00;;;;;;;7.50;2.73;;;;;;;10.97;45.97;100417.69;5087863;28;20625;-70
2022/04/20 05:25:27;;;;;;;5.60;2.67;;;;;;;11.00;45.59;100427.13;5087897;28;20214;-69
2022/04/20 05:27:55;;;;;;;6.87;3.07;;;;;;;10.97;45.68;100427.47;5087771;28;20290;-70
2022/04/20 05:30:24;;;;;;;6.03;3.13;;;;;;;10.82;46.16;100424.47;5085530;28;20293;-70
2022/04/20 05:32:52;;;;;;;9.13;3.10;;;;;;;10.73;46.23;100426.22;5086018;28;20230;-70
2022/04/20 05:35:20;;;;;;;5.50;2.80;;;;;;;10.74;46.63;100427.06;5087241;28;20297;-68
2022/04/20 05:43:18;;;;;;;9.80;3.30;;;;;;;11.00;46.25;100422.66;5086839;28;20253;-69
2022/04/20 05:45:47;;;;;;;11.60;3.40;;;;;;;11.06;46.04;100427.38;5087693;28;20301;-69
2022/04/20 05:48:15;;;;;;;12.10;3.27;;;;;;;11.08;46.09;100435.19;5087378;28;20462;-70
2022/04/20 05:50:44;;;;;;;6.67;3.00;;;;;;;11.05;46.18;100430.19;5090039;28;20227;-69
2022/04/20 05:53:12;;;;;;;11.10;3.40;;;;;;;11.07;46.42;100429.06;5085658;28;20210;-69
2022/04/20 05:55:40;;;;;;;9.73;3.50;;;;;;;11.16;46.69;100432.63;5085392;28;20240;-70
2022/04/20 05:58:07;;;;;;;8.80;3.20;;;;;;;11.27;46.21;100430.53;5087253;28;20738;-69
2022/04/20 06:00:35;;;;;;;12.60;3.67;;;;;;;11.31;46.51;100437.22;5082850;28;20301;-70
2022/04/20 06:03:04;;;;;;;5.30;2.87;;;;;;;11.35;46.32;100443.03;5087282;28;20235;-69
2022/04/20 06:05:32;;;;;;;12.27;3.10;;;;;;;11.37;46.79;100443.72;5087498;28;20779;-70
2022/04/20 06:08:00;;;;;;;10.20;3.23;;;;;;;11.43;46.49;100440.47;5087334;28;20207;-70
2022/04/20 06:10:32;;;;;;;8.63;3.53;;;;;;;11.45;46.84;100433.16;5086255;28;20306;-70
2022/04/20 06:13:00;;;;;;;15.37;3.77;;;;;;;11.46;46.99;100440.16;5087117;28;20435;-70
2022/04/20 06:15:28;;;;;;;6.93;3.23;;;;;;;11.51;46.42;100435.22;5087446;28;20200;-70
2022/04/20 06:17:55;;;;;;;5.00;2.70;;;;;;;11.65;45.28;100439.13;5081638;28;20199;-70
2022/04/20 06:20:27;;;;;;;6.63;3.30;;;;;;;11.72;44.95;100444.63;5083798;28;20234;-70
2022/04/20 06:22:55;;;;;;;7.73;3.43;;;;;;;11.78;45.01;100438.75;5085626;28;20292;-70
2022/04/20 06:25:23;;;;;;;6.13;3.00;;;;;;;11.85;44.59;100439.78;5086333;28;20277;-69
2022/04/20 06:27:51;;;;;;;8.20;3.13;;;;;;;11.89;44.23;100441.13;5085660;28;20218;-69
2022/04/20 06:30:18;;;;;;;5.33;2.40;;;;;;;11.89;44.27;100441.13;5085494;28;20224;-70
2022/04/20 06:32:46;;;;;;;5.27;2.17;;;;;;;11.97;44.25;100436.69;5087642;28;20203;-69
2022/04/20 06:35:14;;;;;;;5.03;2.33;;;;;;;12.05;43.44;100433.25;5085740;28;20201;-68
2022/04/20 06:37:43;;;;;;;8.93;2.33;;;;;;;12.13;43.92;100433.31;5085799;28;20204;-69
2022/04/20 06:40:12;;;;;;;5.80;2.80;;;;;;;12.18;43.39;100431.00;5085287;28;20206;-70
2022/04/20 06:42:39;;;;;;;8.10;2.40;;;;;;;12.29;43.04;100429.88;5086070;28;20561;-71
2022/04/20 06:45:08;;;;;;;6.93;2.47;;;;;;;12.39;42.90;100431.44;5086168;28;20992;-70
2022/04/20 06:47:36;;;;;;;5.57;2.23;;;;;;;12.45;42.73;100416.66;5088226;28;20314;-70
2022/04/20 06:50:04;;;;;;;4.43;2.43;;;;;;;12.36;42.97;100430.91;5085094;28;20267;-69
2022/04/20 07:00:50;;;;;;;4.23;2.57;;;;;;;12.73;42.65;100427.88;5084466;28;20269;-68
2022/04/20 07:03:17;;;;;;;7.17;2.63;;;;;;;12.80;42.35;100426.22;5085170;28;20203;-69
2022/04/20 07:05:45;;;;;;;3.83;2.33;;;;;;;12.82;42.50;100426.88;5084982;28;20233;-70
2022/04/20 07:08:13;;;;;;;5.53;2.67;;;;;;;12.91;42.14;100425.06;5085537;28;20315;-69
2022/04/20 07:10:42;;;;;;;5.40;2.57;;;;;;;13.00;41.85;100424.91;5084249;28;20601;-69
2022/04/20 07:13:12;;;;;;;5.17;2.73;;;;;;;13.06;42.09;100434.06;5082309;28;20239;-70
2022/04/20 07:15:39;;;;;;;5.30;2.47;;;;;;;13.16;40.95;100422.31;5086764;28;20215;-70
2022/04/20 07:18:07;;;;;;;4.20;1.70;;;;;;;13.11;40.96;100435.22;5086647;28;20202;-70
2022/04/20 07:20:35;;;;;;;3.87;2.20;;;;;;;13.19;40.09;100431.78;5083052;28;20286;-69
2022/04/20 07:23:03;;;;;;;4.63;1.80;;;;;;;13.27;39.52;100428.28;5089119;28;20290;-70
2022/04/20 07:25:32;;;;;;;5.10;1.90;;;;;;;13.27;39.36;100430.97;5088290;28;20666;-69
2022/04/20 07:28:01;;;;;;;5.57;2.20;;;;;;;13.35;39.05;100441.59;5083963;28;20716;-69
2022/04/20 07:30:29;;;;;;;5.23;2.20;;;;;;;13.28;38.60;100441.41;5082234;28;20252;-70
2022/04/20 07:32:57;;;;;;;4.23;1.80;;;;;;;13.26;39.21;100442.59;5083744;28;20200;-70
2022/04/20 07:35:25;;;;;;;4.37;2.20;;;;;;;13.31;38.95;100442.94;5080366;28;20922;-68
2022/04/20 07:37:52;;;;;;;3.23;1.97;;;;;;;13.38;38.85;100446.59;5084120;28;20236;-70
2022/04/20 07:40:20;;;;;;;6.37;1.87;;;;;;;13.45;38.88;100442.28;5085302;28;20199;-69
2022/04/20 07:42:52;;;;;;;5.77;1.93;;;;;;;13.57;38.28;100443.59;5085824;28;20282;-69
2022/04/20 07:45:25;;;;;;;5.53;1.97;;;;;;;13.68;38.93;100453.06;5084825;28;20207;-69
2022/04/20 07:47:55;;;;;;;5.10;2.33;;;;;;;13.67;37.83;100446.91;5083185;28;20420;-70
2022/04/20 07:50:24;;;;;;;3.80;2.13;;;;;;;13.77;37.52;100457.38;5083815;28;20269;-70
2022/04/20 07:52:54;;;;;;;4.87;2.07;;;;;;;13.92;36.66;100455.69;5084964;28;20264;-70
2022/04/20 07:55:23;;;;;;;4.47;2.10;;;;;;;13.97;37.28;100453.38;5083019;28;20261;-70
2022/04/20 07:57:52;;;;;;;3.33;2.00;;;;;;;14.12;37.27;100456.16;5085691;28;20293;-70
2022/04/20 08:00:22;;;;;;;4.30;2.30;;;;;;;14.18;36.29;100458.94;5082332;28;20682;-69
2022/04/20 08:02:51;;;;;;;4.03;2.10;;;;;;;14.30;36.24;100448.75;5082820;28;20201;-69
2022/04/20 08:05:20;;;;;;;5.53;2.70;;;;;;;14.32;36.21;100452.09;5085410;28;20299;-69
2022/04/20 08:07:48;;;;;;;3.90;2.23;;;;;;;14.39;35.71;100453.09;5082657;28;20206;-69
2022/04/20 08:10:15;;;;;;;3.57;2.20;;;;;;;14.39;34.98;100453.09;5083898;28;20783;-70
2022/04/20 08:12:45;;;;;;;5.43;2.30;;;;;;;14.44;34.54;100450.72;5087174;28;20697;-69
2022/04/20 08:15:13;;;;;;;4.30;1.97;;;;;;;14.52;35.24;100448.00;5088590;28;20281;-69
2022/04/20 08:17:42;;;;;;;5.17;2.40;;;;;;;14.71;35.08;100441.41;5087674;28;20247;-70
2022/04/20 08:20:10;;;;;;;4.93;2.03;;;;;;;14.84;33.73;100441.69;5086003;28;20217;-70
2022/04/20 08:22:42;;;;;;;6.73;1.90;;;;;;;14.89;33.94;100449.97;5086802;28;20205;-69
2022/04/20 08:25:11;;;;;;;5.83;2.23;;;;;;;15.06;33.09;100443.53;5088126;28;20206;-69
2022/04/20 08:27:40;;;;;;;7.60;2.17;;;;;;;15.23;33.73;100449.56;5093454;28;20237;-70
2022/04/20 08:30:09;;;;;;;4.30;2.13;;;;;;;15.35;33.18;100442.81;5092877;28;20273;-69
2022/04/20 08:32:38;;;;;;;5.27;1.93;;;;;;;15.44;32.68;100443.56;5093618;28;20206;-69
2022/04/20 08:35:08;;;;;;;5.80;2.43;;;;;;;15.49;32.54;100438.50;5095081;28;20211;-69
2022/04/20 08:37:42;;;;;;;3.10;1.70;;;;;;;15.49;32.77;100435.81;5094267;28;20232;-70
2022/04/20 08:40:12;;;;;;;3.63;1.97;;;;;;;15.67;32.25;100441.72;5094234;28;20602;-69
2022/04/20 08:42:41;;;;;;;8.33;2.03;;;;;;;15.76;31.87;100442.47;5092556;28;20597;-69
2022/04/20 08:45:10;;;;;;;4.17;2.13;;;;;;;15.70;31.92;100433.34;5095960;28;20584;-69
2022/04/20 08:47:40;;;;;;;7.57;1.70;;;;;;;15.86;31.40;100443.03;5092602;28;20211;-70
2022/04/20 08:50:10;;;;;;;3.70;2.10;;;;;;;15.98;31.42;100435.41;5092477;28;20662;-71
2022/04/20 08:52:38;;;;;;;4.67;2.00;;;;;;;16.13;31.39;100438.91;5088771;28;20359;-70
2022/04/20 08:55:10;;;;;;;3.70;1.83;;;;;;;16.26;31.13;100435.59;5088426;28;20682;-69
2022/04/20 08:57:39;;;;;;;3.00;1.80;;;;;;;16.27;30.63;100431.91;5091404;28;20201;-71
2022/04/20 09:00:10;;;;;;;2.97;1.80;;;;;;;16.50;31.06;100429.91;5087754;28;22154;-69
2022/04/20 09:02:38;;;;;;;6.70;2.30;;;;;;;16.48;29.98;100426.59;5089657;28;20230;-70
2022/04/20 09:05:07;;;;;;;7.00;2.10;;;;;;;16.59;29.79;100433.31;5085912;28;20200;-69
2022/04/20 09:07:37;;;;;;;6.30;1.93;;;;;;;16.73;29.80;100430.63;5088787;28;20651;-69
2022/04/20 09:10:05;;;;;;;4.00;1.73;;;;;;;16.87;30.33;100427.09;5088855;28;20202;-69
2022/04/20 09:12:33;;;;;;;2.93;2.00;;;;;;;17.01;29.55;100424.53;5092654;28;20222;-69
2022/04/20 09:15:01;;;;;;;2.80;1.73;;;;;;;16.98;29.48;100423.06;5092143;28;20234;-69
2022/04/20 09:17:31;;;;;;;4.50;2.07;;;;;;;17.12;29.31;100418.69;5090703;28;20259;-69
2022/04/20 09:19:59;;;;;;;4.90;2.40;;;;;;;17.44;28.63;100410.09;5089824;28;20195;-70
2022/04/20 09:22:29;;;;;;;4.63;2.10;;;;;;;17.29;28.78;100409.34;5092017;28;20285;-70
2022/04/20 09:25:00;;;;;;;4.77;1.80;;;;;;;17.42;29.14;100409.44;5089036;28;20258;-69
2022/04/20 09:27:30;;;;;;;6.40;2.10;;;;;;;17.54;28.29;100418.63;5092913;28;20722;-70
2022/04/20 09:29:58;;;;;;;6.03;2.37;;;;;;;17.55;28.78;100404.19;5090257;28;20301;-69
2022/04/20 09:32:34;;;;;;;2.27;1.60;;;;;;;17.67;28.06;100412.56;5092233;28;20635;-70
2022/04/20 09:35:05;;;;;;;3.90;1.83;;;;;;;17.51;27.84;100410.97;5091285;28;20206;-70
2022/04/20 09:37:34;;;;;;;4.67;1.80;;;;;;;17.81;28.40;100413.47;5087697;28;20283;-70
2022/04/20 09:40:05;;;;;;;3.20;1.90;;;;;;;17.70;27.87;100411.34;5087831;28;20241;-70
2022/04/20 09:42:39;;;;;;;9.33;1.93;;;;;;;18.03;28.17;100399.78;5088090;28;20635;-69
2022/04/20 09:45:08;;;;;;;4.10;2.30;;;;;;;18.07;28.03;100405.59;5087530;28;20714;-70
2022/04/20 09:50:24;;;;;;;7.67;2.70;;;;;;;18.54;28.41;100412.00;5084722;28;20298;-68
2022/04/20 09:52:55;;;;;;;6.03;2.43;;;;;;;18.57;26.98;100406.25;5085894;28;20230;-70
2022/04/20 09:55:32;;;;;;;3.00;1.87;;;;;;;18.88;26.44;100406.56;5083006;28;20433;-70
2022/04/20 09:58:13;;;;;;;7.50;2.50;;;;;;;18.87;26.14;100404.06;5086567;28;20289;-69
2022/04/20 10:00:42;;;;;;;3.77;2.37;;;;;;;18.80;26.44;100393.31;5086708;28;20203;-68
2022/04/20 10:03:10;;;;;;;3.87;2.10;;;;;;;19.03;26.05;100393.75;5083253;28;20210;-70
2022/04/20 10:05:38;;;;;;;6.57;2.20;;;;;;;18.71;25.75;100397.22;5086998;28;20253;-70
2022/04/20 10:08:07;;;;;;;4.40;2.10;;;;;;;19.10;26.04;100394.59;5086281;28;20206;-70
2022/04/20 10:10:36;;;;;;;4.70;2.37;;;;;;;19.26;25.54;100393.34;5085831;28;20713;-70
2022/04/20 10:13:04;;;;;;;4.37;2.40;;;;;;;19.41;25.85;100385.09;5084591;28;20229;-70
2022/04/20 10:18:21;;;;;;;3.77;2.10;;;;;;;19.39;25.56;100374.53;5084916;28;20252;-69
2022/04/20 10:20:51;;;;;;;3.27;1.90;;;;;;;19.44;25.73;100379.28;5087201;28;20206;-70
2022/04/20 10:23:20;;;;;;;3.30;1.87;;;;;;;19.11;25.22;100372.06;5087043;28;20529;-70
2022/04/20 10:25:52;;;;;;;6.33;2.37;;;;;;;18.98;25.71;100372.06;5080456;28;20210;-70
2022/04/20 10:28:29;;;;;;;9.53;2.20;;;;;;;19.17;25.30;100373.13;5087290;28;20246;-71
2022/04/20 10:31:20;;;;;;;5.10;1.93;;;;;;;19.03;25.85;100369.56;5089253;28;20213;-71
2022/04/20 10:33:49;;;;;;;3.53;2.07;;;;;;;19.49;25.20;100376.84;5087704;28;20210;-71
2022/04/20 10:36:18;;;;;;;3.70;2.03;;;;;;;19.45;24.88;100375.56;5089369;28;20357;-71
2022/04/20 10:38:47;;;;;;;4.23;2.07;;;;;;;19.65;25.24;100365.66;5089446;28;20706;-70
2022/04/20 10:41:18;;;;;;;3.50;2.10;;;;;;;19.74;24.13;100361.72;5088419;28;20715;-71
2022/04/20 10:43:47;;;;;;;4.17;2.13;;;;;;;20.11;24.62;100353.94;5091061;28;20202;-71
2022/04/20 10:46:16;;;;;;;9.77;2.43;;;;;;;20.54;24.72;100348.78;5086546;28;20301;-71
2022/04/20 10:48:55;;;;;;;3.50;1.90;;;;;;;20.77;23.60;100351.75;5083464;28;20214;-72
2022/04/20 10:51:25;;;;;;;3.63;1.90;;;;;;;21.62;22.36;100333.25;5086595;28;20366;-72
2022/04/20 10:53:54;;;;;;;3.27;2.17;;;;;;;23.67;21.25;100340.09;5084276;28;20227;-72
2022/04/20 10:56:23;;;;;;;5.07;2.50;;;;;;;25.73;19.34;100330.63;5089005;28;20199;-71
2022/04/20 10:59:10;;;;;;;6.30;2.50;;;;;;;28.24;16.99;100325.22;5088332;28;20536;-71
2022/04/20 11:02:07;;;;;;;9.30;2.30;;;;;;;31.04;15.56;100302.44;5086643;28;20201;-70
2022/04/20 11:04:39;;;;;;;7.20;2.23;;;;;;;33.02;13.63;100303.50;5083373;28;20691;-70
2022/04/20 11:07:17;;;;;;;4.82;1.98;;;;;;;34.59;13.22;100294.03;5086900;28;20254;-69
2022/04/20 11:10:07;;;;;;;3.25;2.10;;;;;;;35.68;12.11;100296.19;5083785;28;20245;-71
2022/04/20 11:19:04;;;;;;;7.70;2.38;;;;;;;38.82;9.92;100273.31;5082115;28;20207;-69
2022/04/20 11:21:32;;;;;;;2.53;1.80;;;;;;;39.24;9.60;100268.47;5086139;28;20738;-71
2022/04/20 11:24:03;;;;;;;5.03;2.22;;;;;;;37.42;10.13;100276.53;5087927;28;20294;-71
2022/04/20 11:26:33;;;;;;;4.07;2.10;;;;;;;37.28;10.80;100279.53;5090426;28;20225;-70
2022/04/20 11:29:09;;;;;;;4.25;2.30;;;;;;;38.00;10.40;100274.94;5090956;28;20199;-71
2022/04/20 11:31:38;;;;;;;4.07;2.42;;;;;;;38.69;9.42;100263.38;5090112;28;20195;-70
2022/04/20 11:34:06;;;;;;;3.10;2.00;;;;;;;37.11;10.85;100267.69;5090981;28;20236;-69
2022/04/20 11:36:34;;;;;;;2.35;1.77;;;;;;;35.49;12.16;100264.47;5086714;28;20210;-70
2022/04/20 11:39:02;;;;;;;3.30;2.00;;;;;;;34.49;12.58;100269.50;5084536;28;20288;-70
2022/04/20 11:41:30;;;;;;;5.28;1.90;;;;;;;33.03;12.78;100260.38;5087647;28;20236;-70
2022/04/20 11:43:58;;;;;;;5.43;2.13;;;;;;;31.25;13.41;100270.22;5086862;28;20217;-70
2022/04/20 11:46:27;;;;;;;3.47;2.00;;;;;;;29.25;15.00;100267.22;5089082;28;20207;-70
2022/04/20 11:48:59;;;;;;;6.85;2.33;;;;;;;27.76;15.82;100263.72;5090303;28;20206;-71
2022/04/20 11:51:31;;;;;;;5.25;2.17;;;;;;;26.70;16.38;100261.91;5090543;28;20648;-70
2022/04/20 11:53:58;;;;;;;4.60;2.40;;;;;;;24.95;18.47;100263.78;5087999;28;20238;-70
2022/04/20 11:56:34;;;;;;;3.60;2.13;;;;;;;24.49;18.86;100259.44;5086820;28;20629;-69
2022/04/20 11:59:03;;;;;;;3.88;2.00;;;;;;;24.48;18.31;100262.38;5087440;28;20230;-70
2022/04/20 12:01:35;;;;;;;6.13;2.38;;;;;;;23.85;18.64;100258.72;5089511;28;20218;-71
2022/04/20 12:04:10;;;;;;;6.93;2.38;;;;;;;23.54;19.87;100254.59;5090980;28;20252;-70
2022/04/20 12:06:44;;;;;;;4.93;2.47;;;;;;;23.86;19.33;100256.84;5089814;28;20633;-71
2022/04/20 12:09:13;;;;;;;3.22;1.95;;;;;;;23.66;19.51;100259.16;5087324;28;20216;-72
2022/04/20 12:11:41;;;;;;;3.97;2.17;;;;;;;24.09;19.20;100242.41;5089678;28;20213;-70
2022/04/20 12:14:09;;;;;;;4.25;1.73;;;;;;;23.33;20.17;100249.75;5085159;28;20266;-70